createdAt,value
2018-01-15T00:00:35.443Z,19.17
2018-01-15T00:03:02.886Z,20.33
2018-01-15T00:05:30.334Z,20.50
2018-01-15T00:07:57.782Z,21.17
2018-01-15T00:10:25.226Z,22.37
2018-01-15T00:12:53.442Z,20.50
2018-01-15T00:15:20.895Z,19.70
2018-01-15T00:17:48.388Z,19.87
2018-01-15T00:20:15.839Z,24.77
2018-01-15T00:22:43.286Z,21.40
2018-01-15T00:25:10.738Z,19.97
2018-01-15T00:27:38.189Z,22.77
2018-01-15T00:30:05.630Z,19.57
2018-01-15T00:32:33.082Z,19.23
2018-01-15T00:35:00.531Z,19.57
2018-01-15T00:37:27.986Z,17.70
2018-01-15T00:39:55.427Z,22.30
2018-01-15T00:42:22.871Z,19.63
2018-01-15T00:44:51.086Z,20.43
2018-01-15T00:47:18.548Z,19.40
2018-01-15T00:49:45.987Z,23.40
2018-01-15T00:52:13.434Z,21.03
2018-01-15T00:54:40.874Z,17.37
2018-01-15T00:57:09.094Z,21.10
2018-01-15T00:59:36.540Z,19.73
2018-01-15T01:02:03.991Z,19.10
2018-01-15T01:04:31.431Z,21.13
2018-01-15T01:06:58.874Z,21.00
2018-01-15T01:09:27.091Z,18.87
2018-01-15T01:12:14.254Z,22.87
2018-01-15T01:14:41.697Z,17.43
2018-01-15T01:17:09.146Z,20.47
2018-01-15T01:22:27.988Z,21.27
2018-01-15T01:24:55.614Z,20.90
2018-01-15T01:27:23.826Z,18.07
2018-01-15T01:29:51.277Z,18.10
2018-01-15T01:32:20.211Z,22.20
2018-01-15T01:34:47.655Z,20.77
2018-01-15T01:37:15.110Z,17.97
2018-01-15T01:39:42.555Z,20.90
2018-01-15T01:42:09.998Z,21.73
2018-01-15T01:44:37.454Z,23.60
2018-01-15T01:47:04.907Z,19.60
2018-01-15T01:49:32.365Z,21.17
2018-01-15T01:52:00.216Z,21.10
2018-01-15T01:54:27.676Z,19.50
2018-01-15T01:56:55.115Z,21.50
2018-01-15T01:59:23.338Z,21.13
2018-01-15T02:01:50.781Z,21.27
2018-01-15T02:04:18.827Z,19.07
2018-01-15T02:06:46.271Z,26.10
2018-01-15T02:09:14.486Z,21.93
2018-01-15T02:11:41.929Z,23.03
2018-01-15T02:14:09.377Z,23.10
2018-01-15T02:16:36.823Z,25.57
2018-01-15T02:19:04.266Z,25.97
2018-01-15T02:21:32.483Z,21.23
2018-01-15T02:23:59.931Z,27.50
2018-01-15T02:26:27.370Z,28.67
2018-01-15T02:28:54.825Z,30.70
2018-01-15T02:31:22.266Z,25.40
2018-01-15T02:33:50.497Z,24.77
2018-01-15T02:36:17.929Z,30.23
2018-01-15T02:38:45.380Z,24.27
2018-01-15T02:41:12.826Z,31.50
2018-01-15T02:43:40.273Z,24.50
2018-01-15T02:46:08.478Z,24.70
2018-01-15T02:48:35.927Z,27.70
2018-01-15T02:51:03.379Z,28.77
2018-01-15T02:53:30.818Z,24.13
2018-01-15T02:55:58.268Z,23.33
2018-01-15T02:58:26.479Z,21.10
2018-01-15T03:00:53.934Z,24.63
2018-01-15T03:03:21.419Z,22.33
2018-01-15T03:05:48.875Z,22.83
2018-01-15T03:08:16.319Z,25.30
2018-01-15T03:10:43.768Z,22.97
2018-01-15T03:13:11.209Z,23.57
2018-01-15T03:15:38.673Z,24.43
2018-01-15T03:18:06.933Z,24.30
2018-01-15T03:20:34.380Z,25.00
2018-01-15T03:23:01.815Z,19.10
2018-01-15T03:25:30.032Z,19.57
2018-01-15T03:27:58.261Z,23.97
2018-01-15T03:30:25.707Z,28.97
2018-01-15T03:32:53.156Z,24.20
2018-01-15T03:35:20.597Z,21.60
2018-01-15T03:37:48.111Z,21.43
2018-01-15T03:40:15.560Z,23.63
2018-01-15T03:42:43.767Z,24.43
2018-01-15T03:45:11.218Z,23.80
2018-01-15T03:47:38.662Z,22.13
2018-01-15T03:50:06.114Z,20.60
2018-01-15T03:52:33.555Z,24.30
2018-01-15T03:55:01.780Z,24.43
2018-01-15T03:57:29.226Z,22.93
2018-01-15T03:59:56.666Z,20.60
2018-01-15T04:02:24.119Z,23.40
2018-01-15T04:04:51.573Z,21.23
2018-01-15T04:07:19.027Z,24.23
2018-01-15T04:09:46.470Z,23.57
2018-01-15T04:12:14.690Z,22.97
2018-01-15T04:14:42.138Z,25.97
2018-01-15T04:17:09.587Z,35.80
2018-01-15T04:19:37.022Z,24.40
2018-01-15T04:22:04.468Z,24.90
2018-01-15T04:24:32.674Z,21.37
2018-01-15T04:27:00.122Z,25.37
2018-01-15T04:29:27.566Z,24.30
2018-01-15T04:31:55.015Z,23.97
2018-01-15T04:34:23.227Z,19.87
2018-01-15T04:36:50.678Z,25.83
2018-01-15T04:39:18.117Z,23.70
2018-01-15T04:41:45.579Z,28.47
2018-01-15T04:44:13.026Z,28.53
2018-01-15T04:46:40.483Z,28.23
2018-01-15T04:49:07.927Z,26.37
2018-01-15T04:51:36.140Z,27.43
2018-01-15T04:54:03.589Z,30.00
2018-01-15T04:56:31.043Z,32.43
2018-01-15T04:58:58.486Z,30.67
2018-01-15T05:01:25.934Z,26.47
2018-01-15T05:03:53.403Z,26.80
2018-01-15T05:06:20.851Z,28.50
2018-01-15T05:08:48.286Z,28.03
2018-01-15T05:11:16.510Z,30.40
2018-01-15T05:13:43.956Z,25.93
2018-01-15T05:16:11.399Z,29.33
2018-01-15T05:18:38.838Z,26.07
2018-01-15T05:21:07.047Z,29.77
2018-01-15T05:23:34.490Z,24.87
2018-01-15T05:26:02.818Z,27.30
2018-01-15T05:28:30.275Z,24.50
2018-01-15T05:30:57.731Z,24.03
2018-01-15T05:33:25.189Z,26.63
2018-01-15T05:35:52.651Z,23.70
2018-01-15T05:38:20.115Z,25.10
2018-01-15T05:40:47.583Z,27.23
2018-01-15T05:43:15.055Z,23.23
2018-01-15T05:45:42.511Z,24.40
2018-01-15T05:48:09.988Z,26.30
2018-01-15T05:50:37.456Z,24.43
2018-01-15T05:53:04.919Z,23.00
2018-01-15T05:55:32.376Z,23.30
2018-01-15T05:57:59.860Z,26.93
2018-01-15T06:00:27.305Z,28.10
2018-01-15T06:02:54.768Z,22.27
2018-01-15T06:05:22.289Z,26.33
2018-01-15T06:07:49.699Z,25.97
2018-01-15T06:10:17.158Z,23.73
2018-01-15T06:12:44.623Z,24.17
2018-01-15T06:15:12.076Z,22.90
2018-01-15T06:17:40.317Z,25.87
2018-01-15T06:20:07.802Z,25.10
2018-01-15T06:22:35.255Z,22.00
2018-01-15T06:25:02.720Z,24.13
2018-01-15T06:27:30.946Z,25.47
2018-01-15T06:29:58.415Z,23.70
2018-01-15T06:32:25.867Z,23.60
2018-01-15T06:34:53.372Z,23.73
2018-01-15T06:37:21.612Z,27.37
2018-01-15T06:39:49.074Z,22.27
2018-01-15T06:42:16.532Z,22.50
2018-01-15T06:44:44.009Z,22.80
2018-01-15T06:47:12.237Z,28.87
2018-01-15T06:49:39.692Z,23.17
2018-01-15T06:52:07.159Z,25.13
2018-01-15T06:54:34.619Z,22.20
2018-01-15T06:57:02.076Z,22.83
2018-01-15T06:59:29.579Z,20.60
2018-01-15T07:01:57.811Z,23.10
2018-01-15T07:04:25.260Z,23.27
2018-01-15T07:06:52.712Z,25.17
2018-01-15T07:09:20.180Z,25.30
2018-01-15T07:11:47.616Z,24.17
2018-01-15T07:14:15.179Z,21.87
2018-01-15T07:16:42.629Z,22.67
2018-01-15T07:19:10.071Z,22.77
2018-01-15T07:21:37.547Z,25.00
2018-01-15T07:24:04.983Z,23.00
2018-01-15T07:26:32.463Z,20.63
2018-01-15T07:28:59.908Z,24.80
2018-01-15T07:31:27.358Z,20.70
2018-01-15T07:33:54.823Z,23.23
2018-01-15T07:36:22.262Z,22.97
2018-01-15T07:38:49.726Z,21.43
2018-01-15T07:41:17.154Z,23.23
2018-01-15T07:43:45.370Z,24.03
2018-01-15T07:46:12.814Z,25.77
2018-01-15T07:48:40.282Z,22.47
2018-01-15T07:51:07.722Z,24.10
2018-01-15T07:53:35.167Z,24.67
2018-01-15T07:56:02.607Z,26.20
2018-01-15T07:58:31.141Z,23.30
2018-01-15T08:00:58.587Z,21.03
2018-01-15T08:03:26.043Z,28.00
2018-01-15T08:05:53.494Z,22.13
2018-01-15T08:08:20.934Z,24.57
2018-01-15T08:10:48.392Z,26.60
2018-01-15T08:13:15.826Z,23.63
2018-01-15T08:15:44.034Z,23.03
2018-01-15T08:18:11.488Z,23.20
2018-01-15T08:20:38.943Z,24.27
2018-01-15T08:23:06.383Z,20.03
2018-01-15T08:25:33.840Z,20.20
2018-01-15T08:28:01.287Z,24.80
2018-01-15T08:30:29.498Z,26.20
2018-01-15T08:32:56.946Z,25.70
2018-01-15T08:35:24.396Z,21.40
2018-01-15T08:37:51.849Z,22.70
2018-01-15T08:40:19.307Z,24.60
2018-01-15T08:42:46.749Z,22.97
2018-01-15T08:45:14.961Z,27.20
2018-01-15T08:47:42.403Z,23.93
2018-01-15T08:50:10.624Z,22.40
2018-01-15T08:52:38.067Z,22.10
2018-01-15T08:55:05.514Z,25.50
2018-01-15T08:57:32.963Z,20.73
2018-01-15T09:00:00.419Z,21.23
2018-01-15T09:02:27.862Z,22.90
2018-01-15T09:04:55.312Z,22.67
2018-01-15T09:07:22.772Z,24.20
2018-01-15T09:09:50.223Z,22.37
2018-01-15T09:12:17.689Z,21.40
2018-01-15T09:14:45.122Z,30.03
2018-01-15T09:17:12.572Z,24.90
2018-01-15T09:19:40.011Z,23.40
2018-01-15T09:22:08.229Z,26.70
2018-01-15T09:24:36.225Z,24.27
2018-01-15T09:27:03.687Z,23.00
2018-01-15T09:29:31.126Z,22.60
2018-01-15T09:31:58.583Z,24.80
2018-01-15T09:34:26.023Z,29.20
2018-01-15T09:36:53.476Z,23.93
2018-01-15T09:39:20.914Z,19.23
2018-01-15T09:41:48.396Z,23.67
2018-01-15T09:44:15.843Z,18.73
2018-01-15T09:46:43.291Z,20.87
2018-01-15T09:49:10.734Z,19.80
2018-01-15T09:51:38.942Z,21.63
2018-01-15T09:54:06.395Z,20.23
2018-01-15T09:56:33.855Z,20.13
2018-01-15T09:59:01.316Z,22.50
2018-01-15T10:01:29.768Z,21.00
2018-01-15T10:03:57.258Z,20.03
2018-01-15T10:06:24.700Z,16.23
2018-01-15T10:08:52.159Z,18.00
2018-01-15T10:11:19.611Z,21.60
2018-01-15T10:13:47.058Z,21.40
2018-01-15T10:16:14.519Z,24.40
2018-01-15T10:18:42.748Z,19.07
2018-01-15T10:21:10.200Z,19.97
2018-01-15T10:23:38.312Z,18.60
2018-01-15T10:26:06.525Z,15.20
2018-01-15T10:28:33.988Z,16.67
2018-01-15T10:31:01.412Z,21.00
2018-01-15T10:33:28.973Z,20.70
2018-01-15T10:35:57.322Z,20.57
2018-01-15T10:38:25.531Z,21.80
2018-01-15T10:40:53.795Z,17.83
2018-01-15T10:43:21.241Z,19.57
2018-01-15T10:45:48.675Z,18.53
2018-01-15T10:48:16.922Z,16.47
2018-01-15T10:50:44.362Z,17.50
2018-01-15T10:53:11.807Z,18.83
2018-01-15T10:55:39.820Z,13.47
2018-01-15T10:58:07.270Z,17.97
2018-01-15T11:00:40.442Z,14.87
2018-01-15T11:03:07.928Z,16.10
2018-01-15T11:05:35.367Z,19.83
2018-01-15T11:08:02.819Z,16.07
2018-01-15T11:10:30.263Z,17.10
2018-01-15T11:12:57.717Z,17.33
2018-01-15T11:15:25.166Z,16.47
2018-01-15T11:17:52.621Z,16.00
2018-01-15T11:20:20.061Z,13.50
2018-01-15T11:22:47.506Z,15.80
2018-01-15T11:25:14.951Z,13.17
2018-01-15T11:27:43.277Z,14.53
2018-01-15T11:30:10.715Z,13.97
2018-01-15T11:32:38.183Z,16.70
2018-01-15T11:35:05.618Z,14.57
2018-01-15T11:37:33.069Z,13.70
2018-01-15T11:40:00.548Z,14.23
2018-01-15T11:42:27.986Z,15.57
2018-01-15T11:44:55.442Z,15.10
2018-01-15T11:47:22.886Z,13.93
2018-01-15T11:49:50.364Z,13.47
2018-01-15T11:52:17.798Z,15.30
2018-01-15T11:54:45.239Z,15.23
2018-01-15T11:57:13.451Z,14.20
2018-01-15T11:59:40.906Z,13.13
2018-01-15T12:02:08.351Z,12.90
2018-01-15T12:04:35.803Z,13.90
2018-01-15T12:07:03.246Z,15.03
2018-01-15T12:09:31.460Z,12.80
2018-01-15T12:11:58.901Z,14.30
2018-01-15T12:14:26.430Z,16.70
2018-01-15T12:16:54.630Z,13.80
2018-01-15T12:19:22.081Z,12.10
2018-01-15T12:21:49.556Z,13.80
2018-01-15T12:24:17.026Z,13.80
2018-01-15T12:26:44.463Z,16.77
2018-01-15T12:29:11.933Z,15.77
2018-01-15T12:31:39.375Z,14.83
2018-01-15T12:34:06.867Z,12.60
2018-01-15T12:36:34.328Z,16.60
2018-01-15T12:39:01.774Z,12.83
2018-01-15T12:41:29.210Z,16.67
2018-01-15T12:43:56.667Z,15.33
2018-01-15T12:46:24.111Z,16.27
2018-01-15T12:48:52.305Z,14.17
2018-01-15T12:51:19.695Z,15.33
2018-01-15T12:53:47.142Z,14.30
2018-01-15T12:56:14.623Z,16.03
2018-01-15T12:58:42.831Z,17.27
2018-01-15T13:01:10.291Z,16.60
2018-01-15T13:03:37.739Z,14.30
2018-01-15T13:06:06.100Z,16.30
2018-01-15T13:11:34.802Z,16.13
2018-01-15T13:14:03.015Z,16.53
2018-01-15T13:16:30.455Z,18.23
2018-01-15T13:18:57.895Z,13.40
2018-01-15T13:21:25.339Z,16.60
2018-01-15T13:23:53.552Z,15.13
2018-01-15T13:26:20.994Z,17.90
2018-01-15T13:28:48.453Z,16.80
2018-01-15T13:31:15.908Z,15.63
2018-01-15T13:33:43.362Z,16.97
2018-01-15T13:36:11.838Z,21.60
2018-01-15T13:38:39.288Z,14.70
2018-01-15T13:41:06.739Z,13.77
2018-01-15T13:43:34.955Z,14.57
2018-01-15T13:46:02.404Z,19.23
2018-01-15T13:48:29.849Z,16.03
2018-01-15T13:50:57.336Z,15.60
2018-01-15T13:53:24.785Z,16.63
2018-01-15T13:55:52.232Z,18.13
2018-01-15T13:58:19.720Z,15.97
2018-01-15T14:00:47.158Z,15.93
2018-01-15T14:03:14.602Z,14.80
2018-01-15T14:05:42.073Z,15.97
2018-01-15T14:08:09.524Z,16.07
2018-01-15T14:10:36.981Z,14.33
2018-01-15T14:13:04.426Z,14.30
2018-01-15T14:15:31.939Z,15.30
2018-01-15T14:17:59.432Z,15.73
2018-01-15T14:20:26.867Z,15.73
2018-01-15T14:22:54.318Z,15.67
2018-01-15T14:25:22.531Z,16.70
2018-01-15T14:27:50.013Z,18.03
2018-01-15T14:30:17.451Z,17.53
2018-01-15T14:32:44.912Z,16.73
2018-01-15T14:35:12.352Z,14.27
2018-01-15T14:37:39.803Z,14.37
2018-01-15T14:40:07.261Z,13.80
2018-01-15T14:42:34.743Z,15.40
2018-01-15T14:45:02.198Z,13.83
2018-01-15T14:47:29.659Z,13.20
2018-01-15T14:49:57.111Z,16.77
2018-01-15T14:52:25.365Z,15.17
2018-01-15T14:54:52.830Z,14.40
2018-01-15T14:57:20.300Z,14.73
2018-01-15T14:59:47.750Z,16.27
2018-01-15T15:02:15.200Z,14.50
2018-01-15T15:04:42.659Z,13.23
2018-01-15T15:07:10.111Z,17.50
2018-01-15T15:09:37.562Z,16.00
2018-01-15T15:12:05.008Z,14.83
2018-01-15T15:14:32.471Z,16.27
2018-01-15T15:17:00.046Z,12.40
2018-01-15T15:19:27.362Z,16.00
2018-01-15T15:21:54.820Z,13.57
2018-01-15T15:24:23.014Z,13.77
2018-01-15T15:26:51.238Z,13.80
2018-01-15T15:29:18.683Z,13.40
2018-01-15T15:31:46.166Z,13.67
2018-01-15T15:34:14.366Z,16.03
2018-01-15T15:36:41.812Z,14.90
2018-01-15T15:39:09.308Z,15.50
2018-01-15T15:41:36.753Z,16.47
2018-01-15T15:44:04.257Z,15.93
2018-01-15T15:46:31.686Z,17.80
2018-01-15T15:48:59.135Z,16.60
2018-01-15T15:51:26.579Z,17.40
2018-01-15T15:53:54.035Z,17.27
2018-01-15T15:56:21.487Z,17.50
2018-01-15T15:58:48.958Z,17.17
2018-01-15T16:01:16.407Z,15.93
2018-01-15T16:03:43.856Z,15.97
2018-01-15T16:06:11.303Z,15.53
2018-01-15T16:08:39.603Z,18.77
2018-01-15T16:11:07.084Z,17.10
2018-01-15T16:13:34.551Z,15.80
2018-01-15T16:16:02.008Z,14.67
2018-01-15T16:18:29.458Z,17.40
2018-01-15T16:20:56.907Z,15.03
2018-01-15T16:23:24.392Z,18.10
2018-01-15T16:25:52.612Z,16.27
2018-01-15T16:28:20.077Z,21.60
2018-01-15T16:30:48.292Z,16.13
2018-01-15T16:33:15.734Z,16.97
2018-01-15T16:35:43.188Z,15.60
2018-01-15T16:38:10.825Z,17.00
2018-01-15T16:40:38.277Z,16.13
2018-01-15T16:43:05.721Z,16.23
2018-01-15T16:45:33.931Z,15.33
2018-01-15T16:48:01.383Z,17.67
2018-01-15T16:50:28.835Z,15.63
2018-01-15T16:52:56.276Z,17.40
2018-01-15T16:55:23.718Z,15.70
2018-01-15T16:57:51.184Z,17.90
2018-01-15T17:00:19.072Z,15.97
2018-01-15T17:02:46.522Z,17.40
2018-01-15T17:05:13.977Z,17.37
2018-01-15T17:07:41.423Z,12.80
2018-01-15T17:10:09.648Z,13.10
2018-01-15T17:12:37.108Z,12.27
2018-01-15T17:15:05.322Z,14.10
2018-01-15T17:17:33.532Z,12.47
2018-01-15T17:20:00.995Z,12.17
2018-01-15T17:22:28.431Z,12.27
2018-01-15T17:24:55.887Z,12.17
2018-01-15T17:27:23.339Z,12.50
2018-01-15T17:29:50.784Z,11.27
2018-01-15T17:32:19.003Z,12.63
2018-01-15T17:34:46.468Z,14.90
2018-01-15T17:37:14.695Z,12.20
2018-01-15T17:39:42.140Z,15.43
2018-01-15T17:42:09.609Z,16.07
2018-01-15T17:44:37.052Z,13.40
2018-01-15T17:47:04.494Z,12.97
2018-01-15T17:49:31.942Z,12.83
2018-01-15T17:51:59.390Z,15.83
2018-01-15T17:54:27.602Z,13.80
2018-01-15T17:56:55.054Z,13.83
2018-01-15T17:59:22.509Z,15.30
2018-01-15T18:01:49.963Z,13.30
2018-01-15T18:04:17.418Z,14.17
2018-01-15T18:06:44.870Z,14.70
2018-01-15T18:09:12.316Z,14.90
2018-01-15T18:11:39.763Z,12.63
2018-01-15T18:14:07.240Z,18.20
2018-01-15T18:16:34.701Z,16.30
2018-01-15T18:19:02.141Z,13.87
2018-01-15T18:21:29.591Z,15.10
2018-01-15T18:23:57.833Z,15.30
2018-01-15T18:26:25.281Z,13.77
2018-01-15T18:28:52.796Z,15.40
2018-01-15T18:31:20.252Z,14.57
2018-01-15T18:33:47.696Z,14.00
2018-01-15T18:36:15.151Z,13.07
2018-01-15T18:38:42.594Z,13.10
2018-01-15T18:41:10.808Z,15.43
2018-01-15T18:43:38.250Z,17.00
2018-01-15T18:46:05.711Z,16.63
2018-01-15T18:48:33.172Z,14.43
2018-01-15T18:51:00.615Z,14.20
2018-01-15T18:53:28.083Z,16.37
2018-01-15T18:55:55.537Z,14.00
2018-01-15T18:58:22.979Z,15.00
2018-01-15T19:00:50.457Z,16.27
2018-01-15T19:03:17.902Z,13.17
2018-01-15T19:05:45.393Z,14.80
2018-01-15T19:08:12.967Z,14.90
2018-01-15T19:10:40.415Z,17.10
2018-01-15T19:13:08.756Z,15.80
2018-01-15T19:15:36.191Z,16.70
2018-01-15T19:18:04.419Z,16.77
2018-01-15T19:20:31.866Z,15.27
2018-01-15T19:22:59.330Z,14.57
2018-01-15T19:25:26.795Z,16.00
2018-01-15T19:27:54.244Z,12.80
2018-01-15T19:30:21.742Z,13.97
2018-01-15T19:32:49.180Z,12.97
2018-01-15T19:35:19.543Z,12.70
2018-01-15T19:37:49.548Z,12.93
2018-01-15T19:40:17.759Z,11.83
2018-01-15T19:42:45.248Z,14.73
2018-01-15T19:45:18.646Z,13.80
2018-01-15T19:47:51.712Z,13.10
2018-01-15T19:50:24.928Z,12.83
2018-01-15T19:52:58.124Z,11.60
2018-01-15T19:55:31.317Z,10.77
2018-01-15T19:58:04.509Z,9.97
2018-01-15T20:00:37.678Z,11.63
2018-01-15T20:03:10.790Z,9.30
2018-01-15T20:05:44.107Z,8.80
2018-01-15T20:08:17.939Z,9.57
2018-01-15T20:10:48.783Z,10.67
2018-01-15T20:13:16.281Z,12.60
2018-01-15T20:15:43.703Z,9.37
2018-01-15T20:18:11.206Z,8.27
2018-01-15T20:20:38.642Z,9.03
2018-01-15T20:23:06.136Z,10.27
2018-01-15T20:25:34.332Z,7.50
2018-01-15T20:28:01.784Z,8.67
2018-01-15T20:30:29.266Z,8.70
2018-01-15T20:32:57.507Z,8.73
2018-01-15T20:35:24.899Z,8.67
2018-01-15T20:37:52.389Z,8.57
2018-01-15T20:40:19.931Z,9.00
2018-01-15T20:42:47.414Z,8.77
2018-01-15T20:45:15.619Z,11.03
2018-01-15T20:47:43.132Z,7.83
2018-01-15T20:50:10.625Z,7.33
2018-01-15T20:52:38.110Z,8.70
2018-01-15T20:55:05.562Z,8.33
2018-01-15T20:57:33.014Z,7.60
2018-01-15T21:02:44.115Z,7.10
2018-01-15T21:05:11.596Z,6.53
2018-01-15T21:07:39.023Z,10.10
2018-01-15T21:10:06.509Z,7.33
2018-01-15T21:12:33.943Z,8.20
2018-01-15T21:15:01.431Z,7.30
2018-01-15T21:17:28.906Z,5.13
2018-01-15T21:19:57.142Z,6.63
2018-01-15T21:22:24.609Z,5.13
2018-01-15T21:24:52.100Z,5.33
2018-01-15T21:27:19.570Z,6.10
2018-01-15T21:29:47.033Z,6.67
2018-01-15T21:32:14.521Z,9.30
2018-01-15T21:34:42.762Z,6.80
2018-01-15T21:37:10.266Z,6.00
2018-01-15T21:39:37.694Z,5.13
2018-01-15T21:42:05.176Z,4.67
2018-01-15T21:44:32.662Z,6.40
2018-01-15T21:47:00.091Z,6.20
2018-01-15T21:49:27.578Z,5.27
2018-01-15T21:51:55.007Z,4.40
2018-01-15T21:54:22.514Z,14.93
2018-01-15T21:56:49.939Z,6.73
2018-01-15T21:59:18.186Z,5.37
2018-01-15T22:01:45.615Z,4.40
2018-01-15T22:04:13.059Z,4.23
2018-01-15T22:06:40.490Z,7.07
2018-01-15T22:09:08.742Z,4.30
2018-01-15T22:11:36.208Z,5.20
2018-01-15T22:14:03.634Z,4.90
2018-01-15T22:16:31.210Z,4.73
2018-01-15T22:18:58.673Z,4.90
2018-01-15T22:21:26.099Z,4.10
2018-01-15T22:23:53.540Z,6.60
2018-01-15T22:26:21.102Z,5.10
2018-01-15T22:28:48.536Z,4.50
2018-01-15T22:31:16.052Z,5.67
2018-01-15T22:33:43.487Z,3.80
2018-01-15T22:36:10.935Z,3.43
2018-01-15T22:38:38.366Z,3.50
2018-01-15T22:41:05.803Z,4.30
2018-01-15T22:43:34.022Z,3.87
2018-01-15T22:46:01.471Z,3.40
2018-01-15T22:48:28.909Z,3.97
2018-01-15T22:50:56.355Z,3.63
2018-01-15T22:53:24.555Z,4.00
2018-01-15T22:55:52.004Z,2.40
2018-01-15T22:58:19.446Z,3.20
2018-01-15T23:00:47.647Z,3.43
2018-01-15T23:03:15.084Z,3.07
2018-01-15T23:05:43.457Z,2.57
2018-01-15T23:08:10.887Z,3.23
2018-01-15T23:10:38.337Z,3.13
2018-01-15T23:13:05.797Z,2.70
2018-01-15T23:15:33.231Z,3.53
2018-01-15T23:18:00.678Z,2.57
2018-01-15T23:20:28.115Z,2.40
2018-01-15T23:22:55.562Z,2.30
2018-01-15T23:25:23.170Z,2.37
2018-01-15T23:27:50.638Z,2.60
2018-01-15T23:30:18.062Z,3.23
2018-01-15T23:32:45.502Z,2.73
2018-01-15T23:35:12.944Z,2.47
2018-01-15T23:37:40.387Z,2.70
2018-01-15T23:40:07.828Z,2.57
2018-01-15T23:42:36.043Z,2.50
2018-01-15T23:45:03.577Z,2.30
2018-01-15T23:47:30.972Z,2.60
2018-01-15T23:49:58.407Z,2.60
2018-01-15T23:52:25.854Z,2.40
2018-01-15T23:54:53.360Z,3.10
2018-01-15T23:57:20.791Z,1.83
2018-01-15T23:59:48.995Z,2.20
